Time;durP1;ratioP1;P1;durP2;ratioP2;P2;SDS_P1;SDS_P2;PMS_P1;PMS_P2;Temp;Humidity;BMP_temperature;BMP_pressure;BME280_temperature;BME280_humidity;BME280_pressure;Samples;Min_cycle;Max_cycle;Signal;HPM_P1;HPM_P2
2023/04/13 00:02:09;;;;;;;2.00;1.20;;;8.90;1.00;;;;;;4987879;28;20685;-75
2023/04/13 00:04:35;;;;;;;2.80;1.20;;;8.90;1.00;;;;;;4982075;28;20175;-74
2023/04/13 00:07:01;;;;;;;2.70;0.90;;;8.90;1.00;;;;;;5003676;28;20445;-74
2023/04/13 00:09:32;;;;;;;2.03;1.33;;;8.90;1.00;;;;;;4992066;28;20517;-75
2023/04/13 00:11:58;;;;;;;1.20;0.90;;;8.90;1.00;;;;;;4988156;28;20203;-75
2023/04/13 00:14:32;;;;;;;4.50;1.30;;;8.90;1.00;;;;;;4988474;28;20801;-75
2023/04/13 00:16:59;;;;;;;1.83;1.10;;;8.90;1.00;;;;;;4990728;28;20724;-74
2023/04/13 00:19:25;;;;;;;2.13;1.07;;;8.80;1.00;;;;;;4991705;28;20438;-74
2023/04/13 00:21:54;;;;;;;2.13;1.13;;;9.10;1.00;;;;;;4990769;28;20423;-74
2023/04/13 00:24:20;;;;;;;1.83;1.03;;;8.80;1.00;;;;;;5007677;28;20183;-74
2023/04/13 00:26:46;;;;;;;3.10;1.17;;;8.80;1.00;;;;;;4991615;28;20434;-74
2023/04/13 00:29:13;;;;;;;1.30;1.00;;;8.80;1.00;;;;;;4991642;28;20442;-73
2023/04/13 00:31:39;;;;;;;1.73;1.03;;;8.70;1.00;;;;;;5011079;28;20418;-74
2023/04/13 00:34:05;;;;;;;1.80;1.10;;;8.70;1.00;;;;;;5000233;28;20452;-74
2023/04/13 00:36:31;;;;;;;2.13;1.13;;;8.60;1.00;;;;;;5010621;28;20998;-74
2023/04/13 00:38:57;;;;;;;1.30;1.00;;;9.50;1.00;;;;;;5009050;28;20936;-75
2023/04/13 00:41:25;;;;;;;1.27;1.00;;;8.40;1.00;;;;;;5000019;28;20508;-74
2023/04/13 00:43:51;;;;;;;2.30;1.30;;;8.40;1.00;;;;;;4989792;28;20554;-75
2023/04/13 00:46:20;;;;;;;1.53;1.20;;;8.40;1.00;;;;;;4998193;28;21003;-74
2023/04/13 00:48:47;;;;;;;1.30;1.20;;;8.30;1.00;;;;;;4995743;28;20448;-74
2023/04/13 00:51:16;;;;;;;4.83;1.20;;;8.50;1.00;;;;;;4998700;28;20543;-74
2023/04/13 00:53:43;;;;;;;2.07;1.00;;;8.30;1.00;;;;;;4989602;28;20540;-75
2023/04/13 00:56:10;;;;;;;5.63;1.30;;;8.30;1.00;;;;;;4992368;28;20462;-74
2023/04/13 00:58:38;;;;;;;2.10;1.13;;;8.20;1.00;;;;;;5001682;28;20446;-75
2023/04/13 01:01:03;;;;;;;2.13;1.30;;;8.10;1.00;;;;;;4986782;28;20891;-75
2023/04/13 01:03:29;;;;;;;5.90;1.20;;;8.10;1.00;;;;;;4990206;28;20560;-75
2023/04/13 01:06:23;;;;;;;2.83;1.60;;;8.10;1.00;;;;;;4992969;28;20206;-75
2023/04/13 01:09:01;;;;;;;2.60;1.53;;;8.00;1.00;;;;;;5010441;28;20189;-74
2023/04/13 01:11:35;;;;;;;2.13;1.10;;;8.00;1.00;;;;;;5005417;28;20445;-74
2023/04/13 01:14:36;;;;;;;3.13;1.20;;;9.80;1.00;;;;;;5006339;28;20430;-74
2023/04/13 01:17:09;;;;;;;2.90;1.10;;;8.00;1.00;;;;;;4954422;28;20465;-73
2023/04/13 01:19:44;;;;;;;4.00;1.37;;;8.10;1.00;;;;;;4999598;28;21031;-74
2023/04/13 01:22:13;;;;;;;3.10;1.50;;;8.20;1.00;;;;;;4996076;28;20975;-75
2023/04/13 01:25:00;;;;;;;2.50;1.00;;;8.20;1.00;;;;;;4999366;28;20469;-74
2023/04/13 01:27:34;;;;;;;1.70;1.20;;;8.30;1.00;;;;;;5007964;28;20533;-74
2023/04/13 01:30:01;;;;;;;1.30;1.00;;;8.20;1.00;;;;;;4995348;28;20439;-74
2023/04/13 01:32:27;;;;;;;3.50;1.10;;;8.20;1.00;;;;;;4988964;28;20433;-74
2023/04/13 01:34:53;;;;;;;2.53;1.60;;;8.10;1.00;;;;;;4996553;28;20466;-74
2023/04/13 01:37:19;;;;;;;1.77;1.07;;;8.20;1.00;;;;;;4999206;28;20469;-74
2023/04/13 01:39:45;;;;;;;1.57;1.20;;;8.30;1.00;;;;;;4997371;28;20187;-75
2023/04/13 01:42:10;;;;;;;5.17;1.23;;;8.40;1.00;;;;;;5003334;28;21017;-75
2023/04/13 01:44:36;;;;;;;3.00;1.20;;;8.40;1.00;;;;;;5005050;28;20203;-74
2023/04/13 01:47:17;;;;;;;2.40;0.97;;;8.40;1.00;;;;;;4997105;28;20565;-73
2023/04/13 01:49:55;;;;;;;3.70;1.40;;;8.40;1.00;;;;;;4999147;28;21029;-74
2023/04/13 01:52:21;;;;;;;1.97;1.10;;;8.40;1.00;;;;;;5004365;28;20525;-74
2023/04/13 01:54:49;;;;;;;3.03;1.10;;;8.40;1.00;;;;;;4997206;28;20553;-74
2023/04/13 01:57:16;;;;;;;5.27;1.20;;;8.30;1.00;;;;;;4991083;28;20609;-74
2023/04/13 01:59:43;;;;;;;1.50;1.10;;;8.30;1.00;;;;;;4992425;28;20441;-74
2023/04/13 02:02:09;;;;;;;3.73;1.30;;;8.30;1.00;;;;;;4995275;28;20433;-75
2023/04/13 02:04:34;;;;;;;3.40;1.20;;;8.30;1.00;;;;;;4989431;28;20450;-74
2023/04/13 02:07:01;;;;;;;2.50;1.30;;;8.70;1.00;;;;;;4996331;28;20182;-75
2023/04/13 02:09:27;;;;;;;1.97;1.20;;;8.20;1.00;;;;;;4990288;28;20183;-75
2023/04/13 02:11:54;;;;;;;2.67;1.10;;;8.20;1.00;;;;;;4994632;28;20445;-74
2023/04/13 02:14:20;;;;;;;2.47;1.10;;;;;;;;;;5002146;28;20561;-74
2023/04/13 02:16:46;;;;;;;2.60;1.20;;;8.10;1.00;;;;;;5006439;28;20465;-74
2023/04/13 02:19:12;;;;;;;5.47;1.30;;;8.10;1.00;;;;;;5000667;28;20452;-75
2023/04/13 02:21:37;;;;;;;3.30;1.10;;;8.10;1.00;;;;;;5005170;28;20183;-74
2023/04/13 02:24:05;;;;;;;1.20;1.00;;;8.20;1.00;;;;;;4988087;28;20925;-75
2023/04/13 02:26:30;;;;;;;2.33;1.20;;;8.30;1.00;;;;;;5007530;28;20634;-74
2023/04/13 02:28:56;;;;;;;1.90;1.10;;;8.40;1.00;;;;;;4994962;28;20456;-75
2023/04/13 02:31:22;;;;;;;5.90;1.40;;;8.50;1.00;;;;;;4990822;28;20721;-75
2023/04/13 02:33:48;;;;;;;4.60;1.30;;;8.50;1.00;;;;;;4992847;28;20664;-76
2023/04/13 02:36:16;;;;;;;1.80;1.20;;;8.60;1.00;;;;;;5000554;28;20214;-74
2023/04/13 02:38:42;;;;;;;5.63;1.50;;;8.60;1.00;;;;;;4998614;28;20438;-75
2023/04/13 02:41:07;;;;;;;1.40;1.03;;;8.70;1.00;;;;;;4999521;28;20429;-74
2023/04/13 02:43:34;;;;;;;2.10;1.20;;;8.70;1.00;;;;;;4986733;28;20460;-75
2023/04/13 02:46:00;;;;;;;2.07;1.23;;;8.70;1.00;;;;;;4988893;28;20234;-75
2023/04/13 02:48:25;;;;;;;4.27;1.40;;;10.50;1.00;;;;;;4996482;28;20488;-74
2023/04/13 02:50:52;;;;;;;2.60;1.20;;;8.80;1.00;;;;;;4993134;28;20186;-74
2023/04/13 02:53:18;;;;;;;2.80;1.00;;;8.80;1.00;;;;;;4990591;28;20195;-76
2023/04/13 02:55:43;;;;;;;2.60;1.13;;;8.80;1.00;;;;;;4996285;28;20532;-75
2023/04/13 02:58:11;;;;;;;9.30;1.17;;;8.80;1.00;;;;;;4989100;28;20275;-75
2023/04/13 03:00:37;;;;;;;3.83;1.30;;;8.90;1.00;;;;;;4995946;28;20199;-75
2023/04/13 03:03:03;;;;;;;1.83;1.00;;;9.10;1.00;;;;;;5003282;28;20426;-75
2023/04/13 03:05:32;;;;;;;4.20;1.40;;;8.90;1.00;;;;;;4988253;28;20468;-74
2023/04/13 03:07:58;;;;;;;8.60;1.67;;;8.90;1.00;;;;;;4994548;28;20796;-74
2023/04/13 03:10:24;;;;;;;3.23;1.30;;;9.00;1.00;;;;;;4997168;28;20441;-74
2023/04/13 03:12:50;;;;;;;4.73;1.40;;;8.90;1.00;;;;;;4990323;28;20422;-75
2023/04/13 03:15:17;;;;;;;4.90;1.07;;;9.00;1.00;;;;;;4997286;28;20556;-74
2023/04/13 03:17:43;;;;;;;3.27;1.73;;;8.90;1.00;;;;;;4988719;28;20199;-75
2023/04/13 03:20:15;;;;;;;5.00;1.27;;;8.90;1.00;;;;;;5002841;28;20947;-75
2023/04/13 03:22:43;;;;;;;2.33;1.00;;;8.90;1.00;;;;;;4992887;28;20460;-74
2023/04/13 03:25:09;;;;;;;2.67;1.40;;;11.30;1.00;;;;;;4996300;28;20446;-75
2023/04/13 03:27:35;;;;;;;2.90;1.20;;;8.90;1.00;;;;;;4998071;28;20528;-75
2023/04/13 03:30:05;;;;;;;7.70;1.23;;;8.90;1.00;;;;;;4995460;28;20210;-74
2023/04/13 03:32:31;;;;;;;3.30;1.20;;;9.00;1.00;;;;;;4997237;28;20185;-74
2023/04/13 03:34:56;;;;;;;2.17;1.20;;;9.00;1.00;;;;;;4997836;28;20461;-74
2023/04/13 03:37:22;;;;;;;3.10;1.20;;;8.90;1.00;;;;;;4990164;28;20697;-75
2023/04/13 03:39:48;;;;;;;4.23;1.40;;;8.90;1.00;;;;;;4995211;28;20187;-74
2023/04/13 03:42:13;;;;;;;2.70;1.40;;;9.00;1.00;;;;;;4993374;28;20213;-74
2023/04/13 03:44:39;;;;;;;1.80;1.27;;;9.00;1.00;;;;;;4995892;28;20203;-74
2023/04/13 03:47:05;;;;;;;5.03;1.47;;;9.00;1.00;;;;;;4988313;28;20187;-74
2023/04/13 03:49:30;;;;;;;3.10;1.20;;;9.00;1.00;;;;;;4991831;28;20192;-74
2023/04/13 03:51:57;;;;;;;4.13;1.30;;;8.90;1.00;;;;;;4998201;28;20186;-73
2023/04/13 03:54:23;;;;;;;3.77;1.43;;;8.90;1.00;;;;;;4985686;28;20191;-75
2023/04/13 03:56:49;;;;;;;5.77;1.33;;;8.90;1.00;;;;;;5007622;28;20472;-74
2023/04/13 03:59:14;;;;;;;2.93;1.37;;;9.00;1.00;;;;;;4996132;28;20187;-74
2023/04/13 04:01:40;;;;;;;10.10;1.37;;;9.00;1.00;;;;;;4990361;28;20179;-74
2023/04/13 04:04:06;;;;;;;1.80;1.00;;;9.00;1.00;;;;;;4996293;28;20266;-75
2023/04/13 04:06:31;;;;;;;3.70;1.40;;;8.90;1.00;;;;;;4994441;28;20293;-74
2023/04/13 04:08:57;;;;;;;4.80;1.40;;;9.00;1.00;;;;;;4990369;28;20178;-74
2023/04/13 04:11:22;;;;;;;7.60;1.40;;;9.40;1.00;;;;;;4993353;28;20183;-74
2023/04/13 04:13:48;;;;;;;3.57;1.50;;;8.90;1.00;;;;;;4993451;28;20553;-75
2023/04/13 04:16:14;;;;;;;2.07;0.90;;;10.80;1.00;;;;;;4998316;28;20234;-73
2023/04/13 04:18:39;;;;;;;2.87;1.40;;;8.80;1.00;;;;;;5001941;28;20180;-74
2023/04/13 04:21:05;;;;;;;4.07;1.50;;;8.80;1.00;;;;;;4995409;28;20187;-74
2023/04/13 04:23:33;;;;;;;4.20;1.33;;;8.70;1.00;;;;;;4990400;28;20193;-74
2023/04/13 04:26:01;;;;;;;3.10;1.20;;;8.70;1.00;;;;;;4988006;28;20454;-74
2023/04/13 04:28:29;;;;;;;3.10;1.40;;;8.60;1.00;;;;;;4990605;28;20470;-74
2023/04/13 04:30:55;;;;;;;2.63;1.30;;;8.80;1.00;;;;;;4987605;28;20831;-74
2023/04/13 04:33:23;;;;;;;6.30;1.43;;;8.70;1.00;;;;;;4994468;28;20507;-73
2023/04/13 04:35:50;;;;;;;9.80;1.73;;;8.70;1.00;;;;;;4995172;28;20474;-75
2023/04/13 04:38:16;;;;;;;2.47;1.57;;;8.90;1.00;;;;;;4986759;28;20952;-74
2023/04/13 04:40:44;;;;;;;2.93;1.30;;;8.80;1.00;;;;;;4984909;28;20442;-74
2023/04/13 04:43:12;;;;;;;6.43;1.57;;;8.90;1.00;;;;;;4986890;28;20441;-75
2023/04/13 04:45:40;;;;;;;3.67;1.30;;;8.80;1.00;;;;;;5005552;28;20449;-72
2023/04/13 04:48:06;;;;;;;2.60;1.30;;;8.90;1.00;;;;;;5001191;28;20434;-73
2023/04/13 04:50:32;;;;;;;3.57;1.33;;;8.80;1.00;;;;;;4994677;28;20536;-74
2023/04/13 04:52:58;;;;;;;7.03;2.17;;;8.90;1.00;;;;;;4992777;28;21829;-73
2023/04/13 04:55:23;;;;;;;4.03;1.80;;;8.90;1.00;;;;;;5005017;28;21079;-72
2023/04/13 04:57:49;;;;;;;7.30;1.57;;;8.90;1.00;;;;;;5004869;28;20194;-72
2023/04/13 05:00:15;;;;;;;3.13;1.50;;;8.90;1.00;;;;;;5002603;28;20190;-73
2023/04/13 05:02:42;;;;;;;2.70;1.20;;;8.90;1.00;;;;;;4994243;28;20274;-73
2023/04/13 05:05:09;;;;;;;2.80;1.27;;;11.20;1.00;;;;;;4989256;28;20896;-73
2023/04/13 05:07:36;;;;;;;9.10;1.63;;;8.90;1.00;;;;;;4998797;28;20461;-72
2023/04/13 05:10:03;;;;;;;6.70;1.57;;;8.90;1.00;;;;;;4998654;28;20548;-72
2023/04/13 05:12:28;;;;;;;3.77;1.43;;;8.90;1.00;;;;;;4992859;28;20436;-73
2023/04/13 05:14:54;;;;;;;5.10;1.40;;;8.90;1.00;;;;;;4990123;28;20533;-72
2023/04/13 05:17:19;;;;;;;6.63;1.93;;;9.00;1.00;;;;;;4990695;28;20207;-72
2023/04/13 05:19:46;;;;;;;5.47;1.63;;;9.00;1.00;;;;;;5000830;28;20653;-72
2023/04/13 05:22:13;;;;;;;5.90;1.80;;;9.00;1.00;;;;;;4994458;28;20180;-74
2023/04/13 05:24:39;;;;;;;7.70;1.60;;;9.00;1.00;;;;;;4991252;28;21022;-73
2023/04/13 05:27:05;;;;;;;3.33;1.60;;;9.00;1.00;;;;;;5001037;28;20475;-73
2023/04/13 05:29:34;;;;;;;5.10;1.73;;;9.00;1.00;;;;;;5004194;28;20262;-73
2023/04/13 05:32:00;;;;;;;7.40;2.40;;;9.10;1.00;;;;;;4989161;28;20446;-72
2023/04/13 05:34:26;;;;;;;4.40;1.80;;;9.20;1.00;;;;;;4986340;28;20820;-72
2023/04/13 05:36:52;;;;;;;7.73;1.90;;;9.10;1.00;;;;;;4990353;28;20203;-72
2023/04/13 05:39:18;;;;;;;5.83;1.63;;;9.20;1.00;;;;;;5006425;28;20988;-72
2023/04/13 05:41:44;;;;;;;6.07;1.90;;;9.10;1.00;;;;;;4989130;28;20430;-73
2023/04/13 05:44:09;;;;;;;4.20;1.77;;;8.90;1.00;;;;;;4987925;28;20608;-72
2023/04/13 05:46:35;;;;;;;5.20;1.87;;;9.20;1.00;;;;;;4989449;28;20214;-73
2023/04/13 05:49:01;;;;;;;5.47;1.83;;;9.20;1.00;;;;;;4989653;28;20187;-74
2023/04/13 05:51:30;;;;;;;5.40;2.13;;;9.20;1.00;;;;;;4997766;28;20194;-73
2023/04/13 05:53:56;;;;;;;9.50;1.87;;;9.30;1.00;;;;;;4988831;28;20447;-73
2023/04/13 05:56:24;;;;;;;5.37;2.10;;;9.40;1.00;;;;;;4997487;28;20539;-72
2023/04/13 05:58:50;;;;;;;6.40;1.77;;;9.60;1.00;;;;;;4996468;28;20445;-72
2023/04/13 06:01:17;;;;;;;3.63;1.40;;;9.30;1.00;;;;;;4988462;28;20495;-73
2023/04/13 06:03:43;;;;;;;9.73;2.30;;;9.30;1.00;;;;;;5000670;28;20650;-75
2023/04/13 06:06:09;;;;;;;5.40;1.77;;;9.50;1.00;;;;;;4998666;28;20450;-75
2023/04/13 06:08:34;;;;;;;5.17;1.90;;;10.00;1.00;;;;;;5002399;28;20443;-74
2023/04/13 06:11:01;;;;;;;6.40;1.60;;;11.90;1.00;;;;;;4990157;28;20382;-74
2023/04/13 06:13:27;;;;;;;4.97;1.70;;;10.50;1.00;;;;;;4990450;28;20197;-71
2023/04/13 06:15:52;;;;;;;6.23;1.90;;;10.90;1.00;;;;;;4992512;28;20560;-74
2023/04/13 06:18:18;;;;;;;9.97;2.17;;;11.00;1.00;;;;;;4990765;28;20180;-78
2023/04/13 06:20:45;;;;;;;4.10;1.70;;;10.90;1.00;;;;;;4981595;28;20210;-74
2023/04/13 06:23:10;;;;;;;4.40;1.70;;;10.40;1.00;;;;;;5001627;28;20175;-75
2023/04/13 06:25:37;;;;;;;6.70;2.17;;;10.10;1.00;;;;;;4984666;28;20464;-74
2023/04/13 06:28:03;;;;;;;4.37;1.50;;;10.10;1.00;;;;;;4987138;28;20183;-75
2023/04/13 06:30:28;;;;;;;5.60;2.20;;;9.90;1.00;;;;;;4987808;28;20864;-74
2023/04/13 06:32:54;;;;;;;7.43;2.07;;;9.90;1.00;;;;;;4996784;28;20175;-75
2023/04/13 06:35:20;;;;;;;8.33;2.23;;;10.00;1.00;;;;;;4989829;28;20322;-75
2023/04/13 06:37:46;;;;;;;4.30;1.70;;;11.80;1.00;;;;;;4986983;28;20206;-75
2023/04/13 06:40:15;;;;;;;3.63;1.80;;;10.20;1.00;;;;;;4985153;28;20211;-75
2023/04/13 06:42:42;;;;;;;5.83;1.83;;;10.20;1.00;;;;;;4988312;28;20441;-75
2023/04/13 06:45:08;;;;;;;6.93;1.90;;;10.30;1.00;;;;;;4988282;28;20461;-75
2023/04/13 06:47:35;;;;;;;6.27;1.73;;;10.40;1.00;;;;;;4993634;28;20485;-74
2023/04/13 06:50:05;;;;;;;7.90;1.77;;;10.50;1.00;;;;;;4986472;28;20450;-74
2023/04/13 06:52:35;;;;;;;4.60;1.90;;;10.50;1.00;;;;;;4984222;28;20814;-73
2023/04/13 06:55:01;;;;;;;6.10;1.90;;;10.50;1.00;;;;;;4986714;28;20457;-73
2023/04/13 06:57:27;;;;;;;8.50;1.70;;;10.40;1.00;;;;;;4982335;28;20989;-73
2023/04/13 06:59:52;;;;;;;6.53;1.83;;;10.30;1.00;;;;;;4983250;28;20439;-73
2023/04/13 07:02:18;;;;;;;10.70;2.30;;;10.00;1.00;;;;;;4987709;28;20836;-74
2023/04/13 07:04:44;;;;;;;7.37;2.10;;;9.70;1.00;;;;;;4987161;28;20207;-72
2023/04/13 07:07:10;;;;;;;5.53;2.20;;;9.60;1.00;;;;;;4989775;28;20484;-72
2023/04/13 07:09:35;;;;;;;6.53;2.00;;;9.50;1.00;;;;;;4987550;28;20190;-73
2023/04/13 07:12:04;;;;;;;6.83;1.80;;;9.10;1.00;;;;;;4987675;28;20187;-73
2023/04/13 07:14:36;;;;;;;7.33;1.90;;;8.40;1.00;;;;;;4986153;28;20266;-74
2023/04/13 07:17:03;;;;;;;6.67;1.77;;;8.40;1.00;;;;;;4986000;28;20474;-72
2023/04/13 07:19:33;;;;;;;9.70;2.63;;;8.20;1.00;;;;;;4988537;28;20453;-73
2023/04/13 07:21:59;;;;;;;5.73;2.07;;;8.10;1.00;;;;;;4985173;28;20443;-72
2023/04/13 07:24:28;;;;;;;5.20;2.00;;;8.00;1.00;;;;;;4988270;28;20450;-74
2023/04/13 07:26:57;;;;;;;14.63;2.07;;;8.00;1.00;;;;;;4989274;28;20427;-74
2023/04/13 07:29:26;;;;;;;7.30;1.97;;;8.00;1.00;;;;;;4987467;28;20503;-72
2023/04/13 07:31:57;;;;;;;7.87;1.70;;;8.00;1.00;;;;;;4985100;28;20434;-73
2023/04/13 07:34:22;;;;;;;5.40;2.10;;;8.10;1.00;;;;;;4986436;28;20444;-73
2023/04/13 07:36:48;;;;;;;7.20;2.70;;;8.10;1.00;;;;;;4986490;28;20466;-73
2023/04/13 07:39:13;;;;;;;14.40;2.57;;;8.10;1.00;;;;;;4985872;28;20199;-74
2023/04/13 07:41:39;;;;;;;9.70;3.17;;;8.20;1.00;;;;;;4984273;28;20191;-73
2023/04/13 07:44:05;;;;;;;6.93;2.07;;;8.20;1.00;;;;;;4989013;28;20199;-73
2023/04/13 07:46:33;;;;;;;11.00;1.90;;;8.30;1.00;;;;;;4987769;28;20516;-76
2023/04/13 07:48:59;;;;;;;8.47;2.00;;;8.40;1.00;;;;;;4983413;28;20193;-73
2023/04/13 07:51:25;;;;;;;6.70;1.87;;;8.60;1.00;;;;;;4985133;28;20753;-73
2023/04/13 07:53:51;;;;;;;7.60;2.60;;;8.80;1.00;;;;;;4986306;28;20662;-74
2023/04/13 07:56:17;;;;;;;5.07;1.90;;;9.10;1.00;;;;;;4988874;28;20470;-73
2023/04/13 07:58:43;;;;;;;8.00;2.47;;;9.30;1.00;;;;;;4988689;28;20513;-73
2023/04/13 08:01:09;;;;;;;8.03;1.80;;;9.90;1.00;;;;;;4985997;28;20446;-73
2023/04/13 08:03:35;;;;;;;8.13;1.93;;;10.10;1.00;;;;;;4986786;28;20182;-74
2023/04/13 08:06:04;;;;;;;10.23;3.00;;;10.20;1.00;;;;;;4988699;28;20218;-72
2023/04/13 08:08:32;;;;;;;5.20;2.00;;;10.40;1.00;;;;;;4989637;28;20489;-74
2023/04/13 08:10:58;;;;;;;3.90;1.43;;;10.70;1.00;;;;;;4986536;28;21004;-74
2023/04/13 08:13:23;;;;;;;6.93;2.20;;;10.60;1.00;;;;;;4991010;28;20569;-72
2023/04/13 08:15:49;;;;;;;5.80;1.90;;;10.50;1.00;;;;;;4986575;28;20202;-72
2023/04/13 08:18:14;;;;;;;9.63;2.03;;;10.60;1.00;;;;;;4986653;28;20198;-72
2023/04/13 08:20:40;;;;;;;5.57;1.93;;;10.60;1.00;;;;;;4988553;28;20229;-72
2023/04/13 08:23:05;;;;;;;5.90;1.90;;;10.70;1.00;;;;;;4986977;28;20250;-72
2023/04/13 08:25:31;;;;;;;5.20;2.03;;;11.00;1.00;;;;;;4988137;28;20202;-76
2023/04/13 08:27:57;;;;;;;4.57;2.07;;;11.30;1.00;;;;;;4983189;28;20538;-74
2023/04/13 08:30:23;;;;;;;5.63;1.73;;;11.30;1.00;;;;;;5003049;28;20452;-74
2023/04/13 08:32:48;;;;;;;5.90;2.23;;;11.00;1.00;;;;;;4989911;28;20190;-75
2023/04/13 08:35:14;;;;;;;7.60;2.00;;;10.80;1.00;;;;;;4990711;28;20207;-73
2023/04/13 08:37:40;;;;;;;7.70;2.00;;;10.80;1.00;;;;;;4992233;28;20207;-73
2023/04/13 08:40:10;;;;;;;11.03;2.03;;;10.80;1.00;;;;;;4991430;28;20445;-73
2023/04/13 08:42:37;;;;;;;4.40;1.80;;;10.80;1.00;;;;;;5006064;28;20573;-74
2023/04/13 08:45:03;;;;;;;6.43;1.53;;;10.60;1.00;;;;;;4992378;28;20548;-75
2023/04/13 08:47:29;;;;;;;6.03;2.30;;;10.40;1.00;;;;;;4993318;28;20434;-76
2023/04/13 08:50:00;;;;;;;4.70;1.40;;;10.40;1.00;;;;;;4989993;28;20437;-74
2023/04/13 08:52:27;;;;;;;5.97;2.00;;;10.70;1.00;;;;;;4990683;28;20215;-72
2023/04/13 08:54:55;;;;;;;5.77;2.10;;;11.00;1.00;;;;;;4992067;28;20864;-73
2023/04/13 08:57:21;;;;;;;5.37;1.70;;;11.00;1.00;;;;;;4990504;28;20481;-72
2023/04/13 08:59:51;;;;;;;8.53;1.80;;;11.10;1.00;;;;;;4988480;28;20457;-73
2023/04/13 09:02:23;;;;;;;4.03;1.87;;;11.30;1.00;;;;;;4988809;28;20980;-72
2023/04/13 09:04:51;;;;;;;7.27;2.40;;;11.50;1.00;;;;;;4984710;28;20456;-73
2023/04/13 09:07:27;;;;;;;4.93;1.63;;;11.50;1.00;;;;;;4990553;28;20965;-73
2023/04/13 09:09:56;;;;;;;2.87;1.40;;;11.30;1.00;;;;;;4990332;28;20995;-73
2023/04/13 09:12:23;;;;;;;7.93;2.20;;;11.10;1.00;;;;;;4989879;28;20446;-74
2023/04/13 09:14:49;;;;;;;4.53;1.90;;;11.30;1.00;;;;;;4990873;28;20628;-75
2023/04/13 09:17:34;;;;;;;6.63;1.80;;;11.30;1.00;;;;;;4989947;28;20557;-73
2023/04/13 09:20:15;;;;;;;7.60;2.27;;;11.50;1.00;;;;;;5003955;28;20677;-74
2023/04/13 09:22:41;;;;;;;6.67;2.00;;;11.70;1.00;;;;;;4989322;28;20437;-75
2023/04/13 09:25:18;;;;;;;8.43;1.93;;;11.60;1.00;;;;;;4992167;28;20450;-77
2023/04/13 09:27:43;;;;;;;6.83;1.97;;;11.60;1.00;;;;;;4989152;28;20259;-75
2023/04/13 09:30:10;;;;;;;4.10;2.20;;;11.60;1.00;;;;;;5005572;28;20438;-75
2023/04/13 09:32:36;;;;;;;5.30;1.77;;;11.40;1.00;;;;;;4990360;28;20273;-75
2023/04/13 09:35:03;;;;;;;7.57;2.37;;;11.30;1.00;;;;;;4991192;28;20557;-75
2023/04/13 09:37:33;;;;;;;7.53;1.80;;;11.40;1.00;;;;;;4989409;28;20658;-74
2023/04/13 09:40:17;;;;;;;7.13;1.97;;;11.70;1.00;;;;;;4986306;28;20438;-76
2023/04/13 09:42:56;;;;;;;4.90;1.87;;;11.70;1.00;;;;;;4986694;28;20434;-74
2023/04/13 09:45:22;;;;;;;3.13;2.20;;;11.80;1.00;;;;;;4989221;28;20461;-76
2023/04/13 09:47:48;;;;;;;5.50;2.27;;;12.00;1.00;;;;;;4989258;28;20443;-77
2023/04/13 09:50:27;;;;;;;10.27;2.27;;;12.10;1.00;;;;;;4986342;28;20469;-75
2023/04/13 09:53:04;;;;;;;5.27;2.40;;;12.00;1.00;;;;;;4991407;28;20195;-74
2023/04/13 09:55:32;;;;;;;7.47;2.20;;;11.90;1.00;;;;;;4992723;28;20810;-74
2023/04/13 09:58:15;;;;;;;9.83;2.40;;;11.80;1.00;;;;;;4986283;28;20630;-73
2023/04/13 10:00:44;;;;;;;11.33;2.30;;;11.50;1.00;;;;;;4990974;28;20438;-75
2023/04/13 10:03:11;;;;;;;6.33;2.00;;;11.30;1.00;;;;;;4990619;28;20438;-74
2023/04/13 10:05:37;;;;;;;5.40;1.80;;;11.40;1.00;;;;;;4990369;28;20540;-74
2023/04/13 10:08:05;;;;;;;7.13;2.03;;;11.60;1.00;;;;;;4989814;28;20444;-74
2023/04/13 10:10:35;;;;;;;5.50;1.80;;;11.70;1.00;;;;;;4989100;28;20810;-73
2023/04/13 10:13:10;;;;;;;6.87;2.13;;;11.80;1.00;;;;;;4991200;28;20434;-74
2023/04/13 10:15:54;;;;;;;4.80;1.60;;;12.20;1.00;;;;;;4989568;28;20556;-74
2023/04/13 10:18:56;;;;;;;5.57;1.90;;;12.10;1.00;;;;;;4989606;28;20536;-75
2023/04/13 10:21:23;;;;;;;6.37;2.00;;;12.20;1.00;;;;;;5003566;28;20442;-76
2023/04/13 10:23:49;;;;;;;5.57;1.70;;;12.60;1.00;;;;;;4987711;28;20546;-74
2023/04/13 10:26:14;;;;;;;7.10;2.00;;;12.90;1.00;;;;;;4990069;28;20463;-74
2023/04/13 10:28:45;;;;;;;4.57;1.90;;;13.10;1.00;;;;;;4986690;28;20214;-74
2023/04/13 10:31:10;;;;;;;3.37;1.70;;;13.20;1.00;;;;;;4982504;28;20186;-75
2023/04/13 10:33:49;;;;;;;8.07;2.40;;;13.30;1.00;;;;;;4986114;28;20762;-74
2023/04/13 10:36:15;;;;;;;6.07;1.70;;;13.50;1.00;;;;;;4987162;28;20215;-74
2023/04/13 10:38:45;;;;;;;7.33;1.80;;;13.60;1.00;;;;;;4985206;28;20449;-74
2023/04/13 10:41:31;;;;;;;8.10;1.57;;;13.50;1.00;;;;;;4996312;28;20183;-74
2023/04/13 10:44:01;;;;;;;3.33;1.53;;;13.50;1.00;;;;;;4984002;28;20434;-74
2023/04/13 10:46:28;;;;;;;3.47;1.43;;;13.60;1.00;;;;;;4986592;28;20482;-74
2023/04/13 10:48:54;;;;;;;4.97;1.60;;;13.80;1.00;;;;;;4982036;28;21004;-74
2023/04/13 10:51:20;;;;;;;5.80;1.70;;;13.70;1.00;;;;;;4986829;28;20426;-74
2023/04/13 10:53:45;;;;;;;3.83;1.60;;;13.40;1.00;;;;;;4986587;28;20902;-75
2023/04/13 10:56:18;;;;;;;3.73;1.80;;;14.00;1.00;;;;;;4988661;28;20298;-75
2023/04/13 10:58:50;;;;;;;2.53;1.40;;;14.20;1.00;;;;;;4989137;28;20230;-75
2023/04/13 11:01:16;;;;;;;3.53;1.97;;;14.40;1.00;;;;;;4984501;28;20794;-75
2023/04/13 11:03:43;;;;;;;4.80;1.77;;;14.20;1.00;;;;;;4985235;28;22303;-75
2023/04/13 11:06:09;;;;;;;6.10;1.70;;;14.30;1.00;;;;;;4983933;28;20477;-77
2023/04/13 11:08:38;;;;;;;2.93;1.50;;;14.20;1.00;;;;;;4993177;28;20905;-72
2023/04/13 11:11:04;;;;;;;2.73;1.40;;;14.00;1.00;;;;;;4985303;28;20442;-73
2023/04/13 11:13:31;;;;;;;4.70;1.40;;;14.10;1.00;;;;;;4996476;28;20479;-74
2023/04/13 11:16:04;;;;;;;4.17;1.93;;;13.60;1.00;;;;;;4997103;28;20298;-74
2023/04/13 11:18:30;;;;;;;3.57;1.47;;;13.50;1.00;;;;;;4997056;28;20426;-74
2023/04/13 11:20:56;;;;;;;4.70;2.00;;;13.90;1.00;;;;;;4993687;28;20422;-73
2023/04/13 11:23:24;;;;;;;5.07;1.67;;;14.40;1.00;;;;;;5002149;28;20508;-72
2023/04/13 11:25:56;;;;;;;4.43;1.93;;;14.40;1.00;;;;;;4996756;28;20203;-73
2023/04/13 11:28:23;;;;;;;3.03;1.70;;;14.40;1.00;;;;;;5003845;28;20426;-73
2023/04/13 11:30:55;;;;;;;4.57;1.73;;;14.00;1.00;;;;;;4982684;28;20782;-73
2023/04/13 11:33:25;;;;;;;3.40;1.57;;;13.80;1.00;;;;;;5004413;28;20430;-73
2023/04/13 11:35:52;;;;;;;7.60;2.87;;;13.80;1.00;;;;;;4991679;28;20957;-73
2023/04/13 11:38:19;;;;;;;3.40;1.60;;;13.80;1.00;;;;;;4990813;28;20426;-73
2023/04/13 11:40:46;;;;;;;2.90;1.60;;;14.10;1.00;;;;;;5002168;28;20516;-73
2023/04/13 11:43:15;;;;;;;6.50;1.63;;;14.80;1.00;;;;;;4991121;28;20484;-73
2023/04/13 11:45:42;;;;;;;3.43;1.90;;;15.40;1.00;;;;;;5004616;28;20979;-73
2023/04/13 11:48:08;;;;;;;5.30;1.80;;;16.10;1.00;;;;;;4993809;28;20449;-73
2023/04/13 11:50:35;;;;;;;4.90;1.77;;;16.30;1.00;;;;;;5001550;28;20840;-73
2023/04/13 11:53:02;;;;;;;2.93;1.73;;;16.00;1.00;;;;;;4993247;28;20430;-73
2023/04/13 11:55:28;;;;;;;4.50;2.13;;;15.90;1.00;;;;;;5010326;28;20461;-73
2023/04/13 11:57:54;;;;;;;2.60;1.50;;;16.30;1.00;;;;;;4998939;28;20856;-73
2023/04/13 12:00:29;;;;;;;4.87;1.80;;;16.60;1.00;;;;;;4989999;28;20245;-73
2023/04/13 12:02:56;;;;;;;6.70;2.00;;;16.30;1.00;;;;;;4991645;28;20437;-75
2023/04/13 12:05:25;;;;;;;2.17;1.73;;;15.90;1.00;;;;;;4992651;28;20956;-74
2023/04/13 12:07:53;;;;;;;4.53;1.80;;;15.80;1.00;;;;;;4996119;28;20448;-74
2023/04/13 12:10:23;;;;;;;5.37;1.90;;;15.40;1.00;;;;;;4992421;28;20434;-74
2023/04/13 12:12:57;;;;;;;7.20;2.10;;;15.30;1.00;;;;;;4996875;28;20594;-73
2023/04/13 12:15:25;;;;;;;3.93;1.60;;;15.50;1.00;;;;;;4995313;28;20814;-74
2023/04/13 12:17:55;;;;;;;6.13;1.77;;;15.30;1.00;;;;;;4994346;28;20466;-74
2023/04/13 12:20:21;;;;;;;3.63;1.70;;;15.10;1.00;;;;;;4996660;28;20814;-74
2023/04/13 12:22:47;;;;;;;4.90;1.83;;;14.40;1.00;;;;;;5006924;28;21007;-75
2023/04/13 12:25:21;;;;;;;5.20;1.70;;;14.90;1.00;;;;;;4994428;28;20469;-74
2023/04/13 12:27:52;;;;;;;3.43;1.60;;;15.70;1.00;;;;;;4996285;28;20219;-73
2023/04/13 12:30:21;;;;;;;3.33;1.70;;;16.10;1.00;;;;;;4989610;28;20488;-74
2023/04/13 12:32:49;;;;;;;4.67;1.90;;;16.30;1.00;;;;;;5001992;28;20429;-74
2023/04/13 12:35:15;;;;;;;4.50;1.90;;;16.50;1.00;;;;;;5000247;28;20484;-74
2023/04/13 12:37:41;;;;;;;4.60;2.00;;;16.60;1.00;;;;;;4996802;28;20465;-75
2023/04/13 12:40:11;;;;;;;7.23;2.40;;;18.70;1.00;;;;;;4994795;28;20183;-74
2023/04/13 12:42:37;;;;;;;5.60;2.33;;;20.40;1.00;;;;;;4998907;28;20516;-76
2023/04/13 12:45:04;;;;;;;6.63;2.23;;;20.70;1.00;;;;;;5009437;28;20825;-75
2023/04/13 12:47:29;;;;;;;6.00;2.10;;;21.30;1.00;;;;;;4993615;28;20437;-74
2023/04/13 12:49:55;;;;;;;4.77;1.93;;;21.40;1.00;;;;;;4993189;28;20438;-74
2023/04/13 12:52:20;;;;;;;4.50;2.00;;;22.10;1.00;;;;;;4994449;28;20273;-75
2023/04/13 12:54:46;;;;;;;4.47;2.03;;;23.20;1.00;;;;;;4992752;28;20202;-74
2023/04/13 12:57:16;;;;;;;5.50;1.80;;;23.40;1.00;;;;;;4994387;28;20226;-74
2023/04/13 12:59:42;;;;;;;5.07;1.90;;;21.30;1.00;;;;;;4994469;28;20437;-75
2023/04/13 13:02:07;;;;;;;5.53;2.13;;;21.70;1.00;;;;;;4993437;28;20717;-76
2023/04/13 13:04:33;;;;;;;5.30;2.40;;;24.10;1.00;;;;;;4993196;28;20491;-76
2023/04/13 13:06:59;;;;;;;8.17;2.20;;;24.00;1.00;;;;;;4987330;28;20604;-75